createdAt,value
2022-12-29T00:01:57.070Z,10.00
2022-12-29T00:04:23.742Z,10.00
2022-12-29T00:06:50.446Z,10.00
2022-12-29T00:09:17.638Z,10.00
2022-12-29T00:11:44.542Z,10.00
2022-12-29T00:14:31.364Z,10.00
2022-12-29T00:16:58.522Z,10.00
2022-12-29T00:19:43.870Z,10.00
2022-12-29T00:22:30.974Z,10.00
2022-12-29T00:25:01.080Z,10.00
2022-12-29T00:27:47.265Z,10.10
2022-12-29T00:30:34.877Z,10.10
2022-12-29T00:33:20.288Z,10.10
2022-12-29T00:35:53.383Z,10.10
2022-12-29T00:38:39.580Z,10.10
2022-12-29T00:41:24.938Z,10.10
2022-12-29T00:44:07.045Z,10.10
2022-12-29T00:46:35.299Z,10.20
2022-12-29T00:49:21.595Z,10.20
2022-12-29T00:51:48.778Z,10.30
2022-12-29T00:54:16.169Z,10.30
2022-12-29T00:56:48.507Z,10.30
2022-12-29T00:59:15.240Z,10.40
2022-12-29T01:01:42.540Z,10.40
2022-12-29T01:04:10.126Z,10.30
2022-12-29T01:06:40.396Z,10.30
2022-12-29T01:09:26.300Z,10.30
2022-12-29T01:11:53.105Z,10.30
2022-12-29T01:14:20.692Z,10.30
2022-12-29T01:16:47.940Z,10.30
2022-12-29T01:19:15.692Z,10.40
2022-12-29T01:21:42.387Z,10.40
2022-12-29T01:24:09.879Z,10.40
2022-12-29T01:26:36.580Z,10.50
2022-12-29T01:29:03.362Z,10.50
2022-12-29T01:31:30.087Z,10.50
2022-12-29T01:33:56.795Z,10.50
2022-12-29T01:36:23.444Z,10.50
2022-12-29T01:38:50.550Z,10.50
2022-12-29T01:41:17.982Z,10.50
2022-12-29T01:43:46.492Z,10.50
2022-12-29T01:46:24.987Z,10.50
2022-12-29T01:48:55.552Z,10.50
2022-12-29T01:51:24.795Z,10.50
2022-12-29T01:53:51.615Z,10.60
2022-12-29T01:56:21.414Z,10.60
2022-12-29T01:58:50.932Z,10.60
2022-12-29T02:01:19.089Z,10.60
2022-12-29T02:03:46.214Z,10.50
2022-12-29T02:06:23.760Z,10.50
2022-12-29T02:08:51.728Z,10.50
2022-12-29T02:11:18.651Z,10.50
2022-12-29T02:13:45.291Z,10.60
2022-12-29T02:16:36.867Z,10.60
2022-12-29T02:19:25.311Z,10.60
2022-12-29T02:22:15.537Z,10.60
2022-12-29T02:25:10.089Z,10.50
2022-12-29T02:27:56.274Z,10.50
2022-12-29T02:30:45.456Z,10.50
2022-12-29T02:33:27.203Z,10.50
2022-12-29T02:36:02.812Z,10.50
2022-12-29T02:38:50.073Z,10.50
2022-12-29T02:41:24.257Z,10.50
2022-12-29T02:43:50.860Z,10.50
2022-12-29T02:46:30.096Z,10.40
2022-12-29T02:49:29.091Z,10.50
2022-12-29T02:51:56.809Z,10.50
2022-12-29T02:54:42.057Z,10.40
2022-12-29T02:57:33.377Z,10.40
2022-12-29T03:00:12.443Z,10.50
2022-12-29T03:02:57.780Z,10.50
2022-12-29T03:05:34.006Z,10.50
2022-12-29T03:08:20.178Z,10.50
2022-12-29T03:11:31.377Z,10.50
2022-12-29T03:14:25.324Z,10.50
2022-12-29T03:16:56.560Z,10.40
2022-12-29T03:19:33.914Z,10.40
2022-12-29T03:22:23.256Z,10.40
2022-12-29T03:24:53.188Z,10.40
2022-12-29T03:27:26.667Z,10.40
2022-12-29T03:29:58.273Z,10.40
2022-12-29T03:32:29.531Z,10.40
2022-12-29T03:34:56.749Z,10.40
2022-12-29T03:37:25.373Z,10.40
2022-12-29T03:39:52.412Z,10.40
2022-12-29T03:42:21.433Z,10.40
2022-12-29T03:44:48.477Z,10.40
2022-12-29T03:47:16.047Z,10.40
2022-12-29T03:49:42.689Z,10.40
2022-12-29T03:52:09.449Z,10.40
2022-12-29T03:54:36.111Z,10.30
2022-12-29T03:57:02.780Z,10.30
2022-12-29T03:59:29.412Z,10.40
2022-12-29T04:01:56.148Z,10.40
2022-12-29T04:04:23.348Z,10.40
2022-12-29T04:06:50.152Z,10.30
2022-12-29T04:09:16.828Z,10.30
2022-12-29T04:11:44.270Z,10.40
2022-12-29T04:14:10.915Z,10.30
2022-12-29T04:16:39.794Z,10.30
2022-12-29T04:19:08.175Z,10.30
2022-12-29T04:21:35.189Z,10.20
2022-12-29T04:24:02.298Z,10.20
2022-12-29T04:26:29.208Z,10.10
2022-12-29T04:28:55.841Z,10.10
2022-12-29T04:31:22.530Z,10.00
2022-12-29T04:33:49.212Z,9.90
2022-12-29T04:36:16.059Z,9.90
2022-12-29T04:38:42.747Z,9.90
2022-12-29T04:41:09.432Z,9.90
2022-12-29T04:43:36.096Z,9.90
2022-12-29T04:46:02.809Z,9.90
2022-12-29T04:48:29.640Z,9.90
2022-12-29T04:50:56.277Z,9.80
2022-12-29T04:53:22.970Z,9.80
2022-12-29T04:55:51.745Z,9.80
2022-12-29T04:58:22.801Z,9.70
2022-12-29T05:00:50.830Z,9.70
2022-12-29T05:03:17.685Z,9.70
2022-12-29T05:05:45.114Z,9.70
2022-12-29T05:08:11.803Z,9.60
2022-12-29T05:10:38.603Z,9.60
2022-12-29T05:13:05.257Z,9.60
2022-12-29T05:15:32.036Z,9.70
2022-12-29T05:17:58.679Z,9.70
2022-12-29T05:20:25.763Z,9.70
2022-12-29T05:22:52.431Z,9.80
2022-12-29T05:25:19.068Z,9.80
2022-12-29T05:27:45.708Z,9.80
2022-12-29T05:30:12.936Z,9.80
2022-12-29T05:32:40.036Z,9.90
2022-12-29T05:35:07.296Z,9.90
2022-12-29T05:37:34.335Z,9.90
2022-12-29T05:40:00.987Z,9.90
2022-12-29T05:42:27.629Z,10.00
2022-12-29T05:44:54.898Z,10.00
2022-12-29T05:47:21.744Z,9.90
2022-12-29T05:49:48.472Z,9.90
2022-12-29T05:52:15.143Z,9.90
2022-12-29T05:54:41.806Z,9.90
2022-12-29T05:57:08.888Z,9.80
2022-12-29T05:59:35.552Z,9.80
2022-12-29T06:02:02.396Z,9.70
2022-12-29T06:04:29.148Z,9.70
2022-12-29T06:06:55.782Z,9.70
2022-12-29T06:09:22.441Z,9.70
2022-12-29T06:11:49.064Z,9.70
2022-12-29T06:14:15.743Z,9.70
2022-12-29T06:16:42.945Z,9.70
2022-12-29T06:19:09.740Z,9.80
2022-12-29T06:21:36.432Z,9.80
2022-12-29T06:24:03.127Z,9.80
2022-12-29T06:26:30.767Z,9.80
2022-12-29T06:28:57.431Z,9.80
2022-12-29T06:31:24.242Z,9.80
2022-12-29T06:33:50.939Z,9.80
2022-12-29T06:36:17.653Z,9.80
2022-12-29T06:38:44.587Z,9.90
2022-12-29T06:41:11.279Z,9.90
2022-12-29T06:43:39.118Z,9.90
2022-12-29T06:46:06.745Z,9.90
2022-12-29T06:48:33.502Z,9.90
2022-12-29T06:51:00.195Z,9.90
2022-12-29T06:53:27.517Z,9.90
2022-12-29T06:55:54.228Z,9.90
2022-12-29T06:58:21.226Z,9.90
2022-12-29T07:00:47.938Z,9.90
2022-12-29T07:03:14.901Z,9.80
2022-12-29T07:05:41.544Z,9.90
2022-12-29T07:08:08.160Z,9.90
2022-12-29T07:10:34.823Z,9.90
2022-12-29T07:13:01.482Z,9.80
2022-12-29T07:15:28.240Z,9.80
2022-12-29T07:17:54.913Z,9.90
2022-12-29T07:20:26.479Z,9.90
2022-12-29T07:22:53.904Z,9.90
2022-12-29T07:25:20.616Z,9.90
2022-12-29T07:27:47.373Z,10.00
2022-12-29T07:30:14.208Z,10.00
2022-12-29T07:32:40.965Z,10.00
2022-12-29T07:35:08.226Z,10.10
2022-12-29T07:37:35.915Z,10.10
2022-12-29T07:40:04.331Z,10.10
2022-12-29T07:42:32.131Z,10.10
2022-12-29T07:44:58.823Z,10.20
2022-12-29T07:47:25.521Z,10.20
2022-12-29T07:49:52.337Z,10.20
2022-12-29T07:52:18.950Z,10.30
2022-12-29T07:54:46.215Z,10.20
2022-12-29T07:57:12.877Z,10.30
2022-12-29T07:59:39.639Z,10.30
2022-12-29T08:02:06.382Z,10.30
2022-12-29T08:04:33.384Z,10.30
2022-12-29T08:07:00.933Z,10.30
2022-12-29T08:09:27.621Z,10.40
2022-12-29T08:11:54.923Z,10.40
2022-12-29T08:14:21.871Z,10.40
2022-12-29T08:16:48.542Z,10.40
2022-12-29T08:19:15.422Z,10.40
2022-12-29T08:21:42.295Z,10.40
2022-12-29T08:24:09.603Z,10.40
2022-12-29T08:26:36.290Z,10.40
2022-12-29T08:29:02.981Z,10.40
2022-12-29T08:31:29.691Z,10.40
2022-12-29T08:33:56.432Z,10.50
2022-12-29T08:36:23.082Z,10.50
2022-12-29T08:38:49.876Z,10.50
2022-12-29T08:41:16.543Z,10.50
2022-12-29T08:43:48.056Z,10.60
2022-12-29T08:46:15.514Z,10.50
2022-12-29T08:48:42.225Z,10.60
2022-12-29T08:51:08.923Z,10.60
2022-12-29T08:53:35.793Z,10.60
2022-12-29T08:56:05.375Z,10.70
2022-12-29T08:58:32.799Z,10.70
2022-12-29T09:00:59.895Z,10.70
2022-12-29T09:03:55.121Z,10.70
2022-12-29T09:06:14.624Z,10.70
2022-12-29T09:08:41.590Z,10.80
2022-12-29T09:11:10.273Z,10.80
2022-12-29T09:13:37.121Z,10.80
2022-12-29T09:16:04.208Z,10.80
2022-12-29T09:18:31.989Z,10.90
2022-12-29T09:21:00.083Z,10.90
2022-12-29T09:23:27.108Z,10.90
2022-12-29T09:25:54.575Z,10.90
2022-12-29T09:28:22.126Z,11.00
2022-12-29T09:30:49.478Z,10.90
2022-12-29T09:33:16.398Z,10.90
2022-12-29T09:35:50.866Z,10.90
2022-12-29T09:38:17.993Z,11.00
2022-12-29T09:40:52.385Z,10.90
2022-12-29T09:43:43.446Z,10.90
2022-12-29T09:46:27.585Z,10.90
2022-12-29T09:49:17.751Z,10.80
2022-12-29T09:51:49.028Z,10.80
2022-12-29T09:54:30.779Z,10.80
2022-12-29T09:56:57.435Z,10.70
2022-12-29T09:59:38.782Z,10.70
2022-12-29T10:02:17.238Z,10.70
2022-12-29T10:04:44.598Z,10.70
2022-12-29T10:07:29.490Z,10.70
2022-12-29T10:10:03.552Z,10.70
2022-12-29T10:12:52.580Z,10.80
2022-12-29T10:15:49.755Z,10.80
2022-12-29T10:18:49.842Z,10.90
2022-12-29T10:21:39.617Z,10.90
2022-12-29T10:24:10.839Z,10.90
2022-12-29T10:26:41.285Z,11.00
2022-12-29T10:29:15.630Z,10.90
2022-12-29T10:31:51.728Z,10.90
2022-12-29T10:34:51.166Z,10.90
2022-12-29T10:37:33.696Z,10.90
2022-12-29T10:40:02.182Z,11.00
2022-12-29T10:42:34.458Z,11.00
2022-12-29T10:45:01.592Z,11.00
2022-12-29T10:47:30.968Z,11.10
2022-12-29T10:49:59.273Z,11.10
2022-12-29T10:52:27.979Z,11.10
2022-12-29T10:55:03.560Z,11.10
2022-12-29T10:57:38.701Z,11.20
2022-12-29T11:00:14.695Z,11.30
2022-12-29T11:03:03.151Z,11.30
2022-12-29T11:05:42.141Z,11.40
2022-12-29T11:08:20.875Z,11.40
2022-12-29T11:11:02.035Z,11.40
2022-12-29T11:13:36.721Z,11.40
2022-12-29T11:16:06.024Z,11.30
2022-12-29T11:18:38.491Z,11.30
2022-12-29T11:21:07.786Z,11.20
2022-12-29T11:23:38.501Z,11.20
2022-12-29T11:26:11.150Z,11.10
2022-12-29T11:28:38.997Z,11.10
2022-12-29T11:31:07.396Z,11.00
2022-12-29T11:33:36.194Z,11.00
2022-12-29T11:36:09.513Z,11.00
2022-12-29T11:39:02.681Z,10.90
2022-12-29T11:41:31.720Z,10.70
2022-12-29T11:44:01.054Z,10.60
2022-12-29T11:46:35.846Z,10.40
2022-12-29T11:49:03.107Z,10.30
2022-12-29T11:51:34.417Z,10.20
2022-12-29T11:54:03.488Z,10.10
2022-12-29T11:56:43.958Z,10.20
2022-12-29T11:59:30.758Z,10.30
2022-12-29T12:01:59.115Z,10.40
2022-12-29T12:04:28.772Z,10.60
2022-12-29T12:07:03.596Z,10.60
2022-12-29T12:09:30.796Z,10.60
2022-12-29T12:11:58.934Z,10.60
2022-12-29T12:14:51.231Z,10.60
2022-12-29T12:17:24.527Z,10.60
2022-12-29T12:19:59.730Z,10.50
2022-12-29T12:22:34.923Z,10.50
2022-12-29T12:25:21.681Z,10.50
2022-12-29T12:28:11.975Z,10.50
2022-12-29T12:30:45.938Z,10.60
2022-12-29T12:33:31.447Z,10.60
2022-12-29T12:36:19.399Z,10.70
2022-12-29T12:38:50.003Z,10.70
2022-12-29T12:41:45.731Z,10.70
2022-12-29T12:44:21.510Z,10.70
2022-12-29T12:47:11.094Z,10.80
2022-12-29T12:50:12.584Z,10.90
2022-12-29T12:53:13.083Z,10.90
2022-12-29T12:55:48.762Z,10.90
2022-12-29T12:58:44.808Z,10.90
2022-12-29T13:01:34.909Z,11.00
2022-12-29T13:04:04.658Z,11.10
2022-12-29T13:06:52.086Z,11.10
2022-12-29T13:09:34.559Z,11.10
2022-12-29T13:12:23.596Z,11.10
2022-12-29T13:15:20.277Z,11.10
2022-12-29T13:17:52.739Z,11.00
2022-12-29T13:20:54.365Z,11.00
2022-12-29T13:23:29.801Z,10.90
2022-12-29T13:26:18.502Z,10.80
2022-12-29T13:28:48.361Z,10.80
2022-12-29T13:31:30.319Z,10.70
2022-12-29T13:34:12.433Z,10.70
2022-12-29T13:36:46.831Z,10.60
2022-12-29T13:39:21.529Z,10.50
2022-12-29T13:41:50.263Z,10.50
2022-12-29T13:44:28.026Z,10.50
2022-12-29T13:46:57.646Z,10.40
2022-12-29T13:49:27.708Z,10.40
2022-12-29T13:52:00.161Z,10.30
2022-12-29T13:54:45.484Z,10.30
2022-12-29T13:57:32.901Z,10.30
2022-12-29T14:00:05.123Z,10.30
2022-12-29T14:02:48.258Z,10.20
2022-12-29T14:05:21.343Z,10.20
2022-12-29T14:07:49.308Z,10.30
2022-12-29T14:10:38.966Z,10.30
2022-12-29T14:13:21.348Z,10.30
2022-12-29T14:15:59.371Z,10.30
2022-12-29T14:18:36.329Z,10.30
2022-12-29T14:21:18.942Z,10.30
2022-12-29T14:23:47.753Z,10.30
2022-12-29T14:26:19.020Z,10.30
2022-12-29T14:28:49.489Z,10.20
2022-12-29T14:31:16.476Z,10.30
2022-12-29T14:34:12.070Z,10.30
2022-12-29T14:36:44.458Z,10.30
2022-12-29T14:39:39.269Z,10.30
2022-12-29T14:42:12.937Z,10.30
2022-12-29T14:44:50.885Z,10.30
2022-12-29T14:47:24.511Z,10.30
2022-12-29T14:49:52.022Z,10.20
2022-12-29T14:52:22.217Z,10.10
2022-12-29T14:55:01.415Z,10.10
2022-12-29T14:57:35.286Z,10.10
2022-12-29T15:00:07.721Z,10.10
2022-12-29T15:02:41.677Z,10.00
2022-12-29T15:05:35.261Z,9.80
2022-12-29T15:08:03.801Z,9.50
2022-12-29T15:10:38.458Z,9.50
2022-12-29T15:13:10.755Z,8.50
2022-12-29T15:15:39.311Z,8.20
2022-12-29T15:18:24.767Z,8.10
2022-12-29T15:20:59.816Z,8.00
2022-12-29T15:23:26.984Z,7.90
2022-12-29T15:26:03.328Z,7.80
2022-12-29T15:28:40.504Z,7.80
2022-12-29T15:31:11.885Z,7.70
2022-12-29T15:33:41.814Z,7.70
2022-12-29T15:36:14.360Z,7.60
2022-12-29T15:38:41.265Z,7.70
2022-12-29T15:41:27.160Z,7.60
2022-12-29T15:44:14.825Z,7.60
2022-12-29T15:46:41.823Z,7.60
2022-12-29T15:49:09.798Z,7.50
2022-12-29T15:51:39.240Z,7.50
2022-12-29T15:54:06.331Z,7.50
2022-12-29T15:56:34.265Z,7.40
2022-12-29T15:59:01.840Z,7.50
2022-12-29T16:01:32.019Z,7.40
2022-12-29T16:04:00.834Z,7.40
2022-12-29T16:06:32.510Z,7.40
2022-12-29T16:09:08.362Z,7.40
2022-12-29T16:11:38.123Z,7.50
2022-12-29T16:14:10.565Z,7.50
2022-12-29T16:16:40.335Z,7.50
2022-12-29T16:19:14.837Z,7.50
2022-12-29T16:21:42.414Z,7.50
2022-12-29T16:24:20.740Z,7.50
2022-12-29T16:26:50.063Z,7.50
2022-12-29T16:29:16.969Z,7.50
2022-12-29T16:31:54.462Z,7.60
2022-12-29T16:34:38.525Z,7.60
2022-12-29T16:37:29.665Z,7.60
2022-12-29T16:39:56.528Z,7.60
2022-12-29T16:42:39.271Z,7.60
2022-12-29T16:45:24.091Z,7.60
2022-12-29T16:48:06.086Z,7.60
2022-12-29T16:50:34.603Z,7.50
2022-12-29T16:53:01.769Z,7.50
2022-12-29T16:55:28.494Z,7.50
2022-12-29T16:57:57.263Z,7.60
2022-12-29T17:00:28.603Z,7.60
2022-12-29T17:02:58.520Z,7.60
2022-12-29T17:05:25.952Z,7.60
2022-12-29T17:07:53.863Z,7.60
2022-12-29T17:10:20.695Z,7.60
2022-12-29T17:12:48.563Z,7.60
2022-12-29T17:15:33.073Z,7.50
2022-12-29T17:18:00.566Z,7.50
2022-12-29T17:20:31.517Z,7.50
2022-12-29T17:22:58.845Z,7.50
2022-12-29T17:25:37.339Z,7.50
2022-12-29T17:28:07.526Z,7.40
2022-12-29T17:30:36.060Z,7.40
2022-12-29T17:33:08.799Z,7.40
2022-12-29T17:35:35.692Z,7.30
2022-12-29T17:38:02.394Z,7.30
2022-12-29T17:40:31.314Z,7.20
2022-12-29T17:42:59.508Z,7.20
2022-12-29T17:45:31.226Z,7.10
2022-12-29T17:48:02.174Z,7.10
2022-12-29T17:50:30.692Z,7.10
2022-12-29T17:53:06.025Z,7.00
2022-12-29T17:55:37.931Z,7.00
2022-12-29T17:58:23.569Z,6.90
2022-12-29T18:00:52.403Z,6.90
2022-12-29T18:03:24.145Z,6.90
2022-12-29T18:05:50.963Z,6.90
2022-12-29T18:08:17.676Z,6.80
2022-12-29T18:10:44.489Z,6.80
2022-12-29T18:13:27.167Z,6.80
2022-12-29T18:15:56.811Z,6.80
2022-12-29T18:18:26.081Z,6.70
2022-12-29T18:20:55.695Z,6.70
2022-12-29T18:23:27.776Z,6.70
2022-12-29T18:25:59.073Z,6.70
2022-12-29T18:28:26.780Z,6.70
2022-12-29T18:30:54.123Z,6.60
2022-12-29T18:33:24.979Z,6.70
2022-12-29T18:36:03.250Z,6.70
2022-12-29T18:38:30.497Z,6.60
2022-12-29T18:40:58.218Z,6.60
2022-12-29T18:43:25.060Z,6.60
2022-12-29T18:45:51.881Z,6.60
2022-12-29T18:48:20.159Z,6.60
2022-12-29T18:50:49.040Z,6.60
2022-12-29T18:53:17.151Z,6.60
2022-12-29T18:55:43.903Z,6.60
2022-12-29T18:58:10.684Z,6.60
2022-12-29T19:00:37.666Z,6.60
2022-12-29T19:03:04.739Z,6.60
2022-12-29T19:05:42.420Z,6.60
2022-12-29T19:08:10.365Z,6.60
2022-12-29T19:10:37.856Z,6.60
2022-12-29T19:13:05.029Z,6.60
2022-12-29T19:15:33.957Z,6.60
2022-12-29T19:18:42.014Z,6.60
2022-12-29T19:20:50.405Z,6.60
2022-12-29T19:23:19.484Z,6.60
2022-12-29T19:25:46.774Z,6.60
2022-12-29T19:28:23.269Z,6.60
2022-12-29T19:30:52.579Z,6.50
2022-12-29T19:33:21.348Z,6.50
2022-12-29T19:35:48.552Z,6.50
2022-12-29T19:38:15.395Z,6.50
2022-12-29T19:40:47.556Z,6.50
2022-12-29T19:43:15.207Z,6.50
2022-12-29T19:45:43.869Z,6.50
2022-12-29T19:48:16.003Z,6.40
2022-12-29T19:50:43.715Z,6.40
2022-12-29T19:53:11.005Z,6.40
2022-12-29T19:55:37.791Z,6.40
2022-12-29T19:58:04.711Z,6.40
2022-12-29T20:00:31.499Z,6.40
2022-12-29T20:02:58.300Z,6.40
2022-12-29T20:05:25.088Z,6.40
2022-12-29T20:07:51.807Z,6.40
2022-12-29T20:10:18.615Z,6.30
2022-12-29T20:12:45.317Z,6.30
2022-12-29T20:15:12.085Z,6.30
2022-12-29T20:18:11.876Z,6.30
2022-12-29T20:20:25.349Z,6.20
2022-12-29T20:22:52.092Z,6.20
2022-12-29T20:25:44.160Z,6.20
2022-12-29T20:28:05.613Z,6.20
2022-12-29T20:30:32.255Z,6.20
2022-12-29T20:33:02.215Z,6.20
2022-12-29T20:35:32.880Z,6.20
2022-12-29T20:37:59.565Z,6.10
2022-12-29T20:40:26.221Z,6.10
2022-12-29T20:42:52.856Z,6.00
2022-12-29T20:45:19.564Z,6.00
2022-12-29T20:47:46.225Z,5.90
2022-12-29T20:50:12.876Z,5.90
2022-12-29T20:52:39.547Z,5.80
2022-12-29T20:55:06.450Z,5.80
2022-12-29T20:57:49.962Z,5.80
2022-12-29T21:00:22.631Z,5.80
2022-12-29T21:02:49.819Z,5.80
2022-12-29T21:05:25.162Z,5.80
2022-12-29T21:07:53.007Z,5.80
2022-12-29T21:10:19.933Z,5.80
2022-12-29T21:12:46.830Z,5.20
2022-12-29T21:15:15.393Z,5.80
2022-12-29T21:17:43.415Z,5.80
2022-12-29T21:20:19.461Z,5.80
2022-12-29T21:22:47.359Z,5.80
2022-12-29T21:25:14.306Z,5.80
2022-12-29T21:27:44.267Z,5.80
2022-12-29T21:30:11.771Z,5.70
2022-12-29T21:32:38.819Z,5.70
2022-12-29T21:35:06.024Z,5.70
2022-12-29T21:37:32.726Z,5.70
2022-12-29T21:39:59.436Z,5.70
2022-12-29T21:42:29.382Z,5.70
2022-12-29T21:45:20.196Z,5.70
2022-12-29T21:48:06.751Z,5.70
2022-12-29T21:50:33.690Z,5.80
2022-12-29T21:53:00.425Z,5.80
2022-12-29T21:55:27.113Z,5.80
2022-12-29T21:58:12.509Z,5.80
2022-12-29T22:00:58.037Z,5.80
2022-12-29T22:03:43.442Z,5.80
2022-12-29T22:06:29.797Z,5.80
2022-12-29T22:09:15.110Z,5.80
2022-12-29T22:12:00.367Z,5.80
2022-12-29T22:14:27.018Z,5.80
2022-12-29T22:16:53.807Z,5.80
2022-12-29T22:19:20.574Z,5.80
2022-12-29T22:21:47.273Z,5.90
2022-12-29T22:24:13.897Z,5.90
2022-12-29T22:26:40.564Z,5.90
2022-12-29T22:29:07.557Z,5.90
2022-12-29T22:31:34.308Z,6.00
2022-12-29T22:34:02.458Z,6.00
2022-12-29T22:36:29.976Z,6.00
2022-12-29T22:38:56.716Z,6.00
2022-12-29T22:41:23.805Z,6.10
2022-12-29T22:43:50.628Z,6.10
2022-12-29T22:46:17.359Z,6.10
2022-12-29T22:48:44.029Z,6.10
2022-12-29T22:51:10.697Z,6.20
2022-12-29T22:53:37.317Z,6.20
2022-12-29T22:56:06.576Z,6.20
2022-12-29T22:58:33.659Z,6.20
2022-12-29T23:01:00.838Z,6.20
2022-12-29T23:03:27.779Z,6.20
2022-12-29T23:06:02.491Z,6.20
2022-12-29T23:08:31.903Z,6.20
2022-12-29T23:10:58.563Z,6.20
2022-12-29T23:13:25.225Z,6.20
2022-12-29T23:15:52.063Z,6.20
2022-12-29T23:18:18.839Z,6.20
2022-12-29T23:20:46.549Z,6.20
2022-12-29T23:23:13.199Z,6.20
2022-12-29T23:25:40.118Z,6.20
2022-12-29T23:28:09.897Z,6.20
2022-12-29T23:30:36.571Z,6.20
2022-12-29T23:33:03.277Z,6.10
2022-12-29T23:35:29.887Z,6.10
2022-12-29T23:37:56.758Z,6.10
2022-12-29T23:40:23.437Z,6.10
2022-12-29T23:42:50.076Z,6.00
2022-12-29T23:45:16.819Z,6.00
2022-12-29T23:47:43.492Z,6.00
2022-12-29T23:50:10.207Z,5.20
2022-12-29T23:52:36.883Z,6.00
2022-12-29T23:55:04.948Z,6.00
2022-12-29T23:57:31.764Z,6.00
2022-12-29T23:59:58.397Z,6.00
